sensor_id;sensor_type;location;lat;lon;timestamp;P1;durP1;ratioP1;P2;durP2;ratioP2
3036;SDS011;1528;52.550;13.408;2023-12-20T00:01:14;14.53;;;13.73;;
3036;SDS011;1528;52.550;13.408;2023-12-20T00:04:01;16.20;;;15.40;;
3036;SDS011;1528;52.550;13.408;2023-12-20T00:06:47;14.70;;;13.90;;
3036;SDS011;1528;52.550;13.408;2023-12-20T00:09:32;14.43;;;13.73;;
3036;SDS011;1528;52.550;13.408;2023-12-20T00:12:18;14.80;;;14.00;;
3036;SDS011;1528;52.550;13.408;2023-12-20T00:15:04;14.17;;;13.47;;
3036;SDS011;1528;52.550;13.408;2023-12-20T00:17:50;15.07;;;14.30;;
3036;SDS011;1528;52.550;13.408;2023-12-20T00:20:37;16.53;;;15.73;;
3036;SDS011;1528;52.550;13.408;2023-12-20T00:23:23;15.27;;;14.47;;
3036;SDS011;1528;52.550;13.408;2023-12-20T00:26:08;14.57;;;13.87;;
3036;SDS011;1528;52.550;13.408;2023-12-20T00:28:54;14.90;;;14.20;;
3036;SDS011;1528;52.550;13.408;2023-12-20T00:31:40;15.80;;;15.00;;
3036;SDS011;1528;52.550;13.408;2023-12-20T00:34:25;12.80;;;12.10;;
3036;SDS011;1528;52.550;13.408;2023-12-20T00:37:12;13.33;;;12.63;;
3036;SDS011;1528;52.550;13.408;2023-12-20T00:39:58;16.53;;;15.63;;
3036;SDS011;1528;52.550;13.408;2023-12-20T00:42:43;13.67;;;12.97;;
3036;SDS011;1528;52.550;13.408;2023-12-20T00:45:30;14.20;;;13.47;;
3036;SDS011;1528;52.550;13.408;2023-12-20T00:48:16;14.00;;;13.30;;
3036;SDS011;1528;52.550;13.408;2023-12-20T00:51:01;14.03;;;13.17;;
3036;SDS011;1528;52.550;13.408;2023-12-20T00:53:49;14.03;;;13.23;;
3036;SDS011;1528;52.550;13.408;2023-12-20T00:56:38;13.57;;;12.80;;
3036;SDS011;1528;52.550;13.408;2023-12-20T00:59:23;14.20;;;13.40;;
3036;SDS011;1528;52.550;13.408;2023-12-20T01:02:09;14.17;;;13.37;;
3036;SDS011;1528;52.550;13.408;2023-12-20T01:04:54;17.90;;;16.97;;
3036;SDS011;1528;52.550;13.408;2023-12-20T01:07:40;16.87;;;16.07;;
3036;SDS011;1528;52.550;13.408;2023-12-20T01:10:27;14.43;;;13.60;;
3036;SDS011;1528;52.550;13.408;2023-12-20T01:13:13;14.37;;;13.57;;
3036;SDS011;1528;52.550;13.408;2023-12-20T01:15:58;16.47;;;15.57;;
3036;SDS011;1528;52.550;13.408;2023-12-20T01:18:44;14.70;;;13.90;;
3036;SDS011;1528;52.550;13.408;2023-12-20T01:21:30;15.33;;;14.53;;
3036;SDS011;1528;52.550;13.408;2023-12-20T01:24:15;15.73;;;14.73;;
3036;SDS011;1528;52.550;13.408;2023-12-20T01:27:02;17.60;;;16.70;;
3036;SDS011;1528;52.550;13.408;2023-12-20T01:29:48;14.97;;;14.17;;
3036;SDS011;1528;52.550;13.408;2023-12-20T01:32:34;13.50;;;12.70;;
3036;SDS011;1528;52.550;13.408;2023-12-20T01:35:19;14.87;;;13.87;;
3036;SDS011;1528;52.550;13.408;2023-12-20T01:38:05;14.00;;;13.10;;
3036;SDS011;1528;52.550;13.408;2023-12-20T01:40:50;14.30;;;13.40;;
3036;SDS011;1528;52.550;13.408;2023-12-20T01:43:37;17.00;;;16.00;;
3036;SDS011;1528;52.550;13.408;2023-12-20T01:46:23;16.37;;;15.50;;
3036;SDS011;1528;52.550;13.408;2023-12-20T01:49:09;12.40;;;11.80;;
3036;SDS011;1528;52.550;13.408;2023-12-20T01:51:54;14.40;;;13.63;;
3036;SDS011;1528;52.550;13.408;2023-12-20T01:54:40;12.53;;;11.83;;
3036;SDS011;1528;52.550;13.408;2023-12-20T01:57:27;12.03;;;11.43;;
3036;SDS011;1528;52.550;13.408;2023-12-20T02:00:14;11.97;;;11.27;;
3036;SDS011;1528;52.550;13.408;2023-12-20T02:03:00;13.70;;;13.10;;
3036;SDS011;1528;52.550;13.408;2023-12-20T02:05:46;11.77;;;11.07;;
3036;SDS011;1528;52.550;13.408;2023-12-20T02:08:32;11.20;;;10.70;;
3036;SDS011;1528;52.550;13.408;2023-12-20T02:11:17;11.07;;;10.57;;
3036;SDS011;1528;52.550;13.408;2023-12-20T02:14:03;10.67;;;10.17;;
3036;SDS011;1528;52.550;13.408;2023-12-20T02:16:50;12.67;;;12.07;;
3036;SDS011;1528;52.550;13.408;2023-12-20T02:19:36;10.67;;;10.17;;
3036;SDS011;1528;52.550;13.408;2023-12-20T02:22:23;12.73;;;12.13;;
3036;SDS011;1528;52.550;13.408;2023-12-20T02:25:08;10.80;;;10.30;;
3036;SDS011;1528;52.550;13.408;2023-12-20T02:27:54;10.90;;;10.40;;
3036;SDS011;1528;52.550;13.408;2023-12-20T02:30:40;10.90;;;10.20;;
3036;SDS011;1528;52.550;13.408;2023-12-20T02:33:25;11.50;;;10.90;;
3036;SDS011;1528;52.550;13.408;2023-12-20T02:36:11;9.20;;;8.70;;
3036;SDS011;1528;52.550;13.408;2023-12-20T02:38:58;12.30;;;11.80;;
3036;SDS011;1528;52.550;13.408;2023-12-20T02:41:43;11.13;;;10.43;;
3036;SDS011;1528;52.550;13.408;2023-12-20T02:44:29;15.47;;;14.77;;
3036;SDS011;1528;52.550;13.408;2023-12-20T02:47:14;12.57;;;12.00;;
3036;SDS011;1528;52.550;13.408;2023-12-20T02:50:00;11.20;;;10.70;;
3036;SDS011;1528;52.550;13.408;2023-12-20T02:52:46;12.73;;;12.13;;
3036;SDS011;1528;52.550;13.408;2023-12-20T02:55:33;10.80;;;10.17;;
3036;SDS011;1528;52.550;13.408;2023-12-20T02:58:18;12.73;;;12.07;;
3036;SDS011;1528;52.550;13.408;2023-12-20T03:01:04;12.37;;;11.77;;
3036;SDS011;1528;52.550;13.408;2023-12-20T03:03:50;11.30;;;10.60;;
3036;SDS011;1528;52.550;13.408;2023-12-20T03:06:35;11.00;;;10.40;;
3036;SDS011;1528;52.550;13.408;2023-12-20T03:13:03;10.40;;;9.57;;
3036;SDS011;1528;52.550;13.408;2023-12-20T03:15:49;10.77;;;9.93;;
3036;SDS011;1528;52.550;13.408;2023-12-20T03:18:34;12.80;;;12.07;;
3036;SDS011;1528;52.550;13.408;2023-12-20T03:21:20;12.43;;;11.50;;
3036;SDS011;1528;52.550;13.408;2023-12-20T03:24:05;12.50;;;11.80;;
3036;SDS011;1528;52.550;13.408;2023-12-20T03:26:51;10.80;;;10.10;;
3036;SDS011;1528;52.550;13.408;2023-12-20T03:29:38;14.17;;;13.23;;
3036;SDS011;1528;52.550;13.408;2023-12-20T03:32:24;12.53;;;11.60;;
3036;SDS011;1528;52.550;13.408;2023-12-20T03:35:09;10.70;;;10.00;;
3036;SDS011;1528;52.550;13.408;2023-12-20T03:37:55;12.00;;;11.40;;
3036;SDS011;1528;52.550;13.408;2023-12-20T03:40:43;12.10;;;11.20;;
3036;SDS011;1528;52.550;13.408;2023-12-20T03:43:29;12.23;;;11.53;;
3036;SDS011;1528;52.550;13.408;2023-12-20T03:46:16;11.47;;;10.53;;
3036;SDS011;1528;52.550;13.408;2023-12-20T03:49:02;10.83;;;10.03;;
3036;SDS011;1528;52.550;13.408;2023-12-20T03:51:48;8.83;;;8.13;;
3036;SDS011;1528;52.550;13.408;2023-12-20T03:54:34;10.10;;;9.50;;
3036;SDS011;1528;52.550;13.408;2023-12-20T03:57:20;13.77;;;13.07;;
3036;SDS011;1528;52.550;13.408;2023-12-20T04:00:07;11.23;;;10.60;;
3036;SDS011;1528;52.550;13.408;2023-12-20T04:02:55;13.47;;;12.67;;
3036;SDS011;1528;52.550;13.408;2023-12-20T04:05:41;12.17;;;11.20;;
3036;SDS011;1528;52.550;13.408;2023-12-20T04:08:27;9.60;;;8.90;;
3036;SDS011;1528;52.550;13.408;2023-12-20T04:11:12;13.03;;;12.43;;
3036;SDS011;1528;52.550;13.408;2023-12-20T04:13:58;10.80;;;10.07;;
3036;SDS011;1528;52.550;13.408;2023-12-20T04:16:44;11.57;;;10.47;;
3036;SDS011;1528;52.550;13.408;2023-12-20T04:19:31;13.50;;;12.50;;
3036;SDS011;1528;52.550;13.408;2023-12-20T04:22:17;9.77;;;8.90;;
3036;SDS011;1528;52.550;13.408;2023-12-20T04:25:03;10.70;;;9.83;;
3036;SDS011;1528;52.550;13.408;2023-12-20T04:27:49;14.60;;;13.17;;
3036;SDS011;1528;52.550;13.408;2023-12-20T04:30:35;12.57;;;11.30;;
3036;SDS011;1528;52.550;13.408;2023-12-20T04:33:20;14.13;;;12.93;;
3036;SDS011;1528;52.550;13.408;2023-12-20T04:36:07;13.57;;;12.67;;
3036;SDS011;1528;52.550;13.408;2023-12-20T04:38:53;11.93;;;11.20;;
3036;SDS011;1528;52.550;13.408;2023-12-20T04:41:39;15.07;;;13.97;;
3036;SDS011;1528;52.550;13.408;2023-12-20T04:44:25;11.27;;;10.50;;
3036;SDS011;1528;52.550;13.408;2023-12-20T04:47:10;15.20;;;13.67;;
3036;SDS011;1528;52.550;13.408;2023-12-20T04:49:56;13.97;;;12.93;;
3036;SDS011;1528;52.550;13.408;2023-12-20T04:52:43;15.17;;;13.87;;
3036;SDS011;1528;52.550;13.408;2023-12-20T04:55:28;12.37;;;11.60;;
3036;SDS011;1528;52.550;13.408;2023-12-20T04:58:14;14.40;;;13.30;;
3036;SDS011;1528;52.550;13.408;2023-12-20T05:00:59;15.03;;;13.73;;
3036;SDS011;1528;52.550;13.408;2023-12-20T05:03:45;13.67;;;12.87;;
3036;SDS011;1528;52.550;13.408;2023-12-20T05:06:31;15.27;;;14.17;;
3036;SDS011;1528;52.550;13.408;2023-12-20T05:09:18;12.83;;;11.93;;
3036;SDS011;1528;52.550;13.408;2023-12-20T05:12:04;13.60;;;12.53;;
3036;SDS011;1528;52.550;13.408;2023-12-20T05:14:51;11.10;;;10.33;;
3036;SDS011;1528;52.550;13.408;2023-12-20T05:17:37;14.00;;;13.20;;
3036;SDS011;1528;52.550;13.408;2023-12-20T05:20:23;12.43;;;11.57;;
3036;SDS011;1528;52.550;13.408;2023-12-20T05:23:08;13.93;;;12.73;;
3036;SDS011;1528;52.550;13.408;2023-12-20T05:25:56;14.83;;;13.83;;
3036;SDS011;1528;52.550;13.408;2023-12-20T05:28:42;14.70;;;13.70;;
3036;SDS011;1528;52.550;13.408;2023-12-20T05:35:09;12.93;;;12.20;;
3036;SDS011;1528;52.550;13.408;2023-12-20T05:37:55;12.17;;;10.93;;
3036;SDS011;1528;52.550;13.408;2023-12-20T05:40:40;12.00;;;11.13;;
3036;SDS011;1528;52.550;13.408;2023-12-20T05:43:27;12.73;;;11.67;;
3036;SDS011;1528;52.550;13.408;2023-12-20T05:46:12;13.37;;;12.27;;
3036;SDS011;1528;52.550;13.408;2023-12-20T05:48:58;15.73;;;14.50;;
3036;SDS011;1528;52.550;13.408;2023-12-20T05:51:44;16.30;;;14.73;;
3036;SDS011;1528;52.550;13.408;2023-12-20T05:54:29;14.27;;;13.13;;
3036;SDS011;1528;52.550;13.408;2023-12-20T05:57:15;11.80;;;11.10;;
3036;SDS011;1528;52.550;13.408;2023-12-20T06:00:02;11.37;;;10.33;;
3036;SDS011;1528;52.550;13.408;2023-12-20T06:02:47;11.93;;;11.00;;
3036;SDS011;1528;52.550;13.408;2023-12-20T06:05:33;13.40;;;11.83;;
3036;SDS011;1528;52.550;13.408;2023-12-20T06:08:19;13.07;;;12.00;;
3036;SDS011;1528;52.550;13.408;2023-12-20T06:11:04;11.83;;;10.70;;
3036;SDS011;1528;52.550;13.408;2023-12-20T06:13:50;10.80;;;10.10;;
3036;SDS011;1528;52.550;13.408;2023-12-20T06:16:38;11.30;;;8.90;;
3036;SDS011;1528;52.550;13.408;2023-12-20T06:19:24;10.07;;;9.07;;
3036;SDS011;1528;52.550;13.408;2023-12-20T06:22:09;10.20;;;9.50;;
3036;SDS011;1528;52.550;13.408;2023-12-20T06:24:55;12.20;;;11.10;;
3036;SDS011;1528;52.550;13.408;2023-12-20T06:27:41;13.73;;;12.10;;
3036;SDS011;1528;52.550;13.408;2023-12-20T06:30:26;13.50;;;12.60;;
3036;SDS011;1528;52.550;13.408;2023-12-20T06:33:13;12.90;;;12.03;;
3036;SDS011;1528;52.550;13.408;2023-12-20T06:35:59;14.60;;;13.70;;
3036;SDS011;1528;52.550;13.408;2023-12-20T06:38:44;16.73;;;13.50;;
3036;SDS011;1528;52.550;13.408;2023-12-20T06:41:30;12.90;;;12.10;;
3036;SDS011;1528;52.550;13.408;2023-12-20T06:44:16;14.20;;;11.17;;
3036;SDS011;1528;52.550;13.408;2023-12-20T06:47:01;14.83;;;13.93;;
3036;SDS011;1528;52.550;13.408;2023-12-20T06:49:49;14.73;;;13.77;;
3036;SDS011;1528;52.550;13.408;2023-12-20T06:52:34;13.00;;;12.10;;
3036;SDS011;1528;52.550;13.408;2023-12-20T06:55:20;12.93;;;11.80;;
3036;SDS011;1528;52.550;13.408;2023-12-20T06:58:08;14.17;;;13.10;;
3036;SDS011;1528;52.550;13.408;2023-12-20T07:00:54;13.80;;;13.00;;
3036;SDS011;1528;52.550;13.408;2023-12-20T07:03:39;13.53;;;12.53;;
3036;SDS011;1528;52.550;13.408;2023-12-20T07:06:27;13.90;;;13.10;;
3036;SDS011;1528;52.550;13.408;2023-12-20T07:09:14;12.23;;;11.23;;
3036;SDS011;1528;52.550;13.408;2023-12-20T07:12:00;13.27;;;12.13;;
3036;SDS011;1528;52.550;13.408;2023-12-20T07:14:46;11.60;;;10.90;;
3036;SDS011;1528;52.550;13.408;2023-12-20T07:17:32;11.17;;;10.23;;
3036;SDS011;1528;52.550;13.408;2023-12-20T07:20:17;13.83;;;12.53;;
3036;SDS011;1528;52.550;13.408;2023-12-20T07:23:05;13.43;;;12.23;;
3036;SDS011;1528;52.550;13.408;2023-12-20T07:25:50;17.23;;;15.80;;
3036;SDS011;1528;52.550;13.408;2023-12-20T07:28:36;17.07;;;15.73;;
3036;SDS011;1528;52.550;13.408;2023-12-20T07:31:21;14.77;;;13.30;;
3036;SDS011;1528;52.550;13.408;2023-12-20T07:34:11;17.30;;;15.80;;
3036;SDS011;1528;52.550;13.408;2023-12-20T07:36:56;14.73;;;13.83;;
3036;SDS011;1528;52.550;13.408;2023-12-20T07:39:44;14.83;;;13.70;;
3036;SDS011;1528;52.550;13.408;2023-12-20T07:42:29;13.17;;;12.10;;
3036;SDS011;1528;52.550;13.408;2023-12-20T07:45:15;17.97;;;16.57;;
3036;SDS011;1528;52.550;13.408;2023-12-20T07:48:01;15.83;;;14.60;;
3036;SDS011;1528;52.550;13.408;2023-12-20T07:50:47;17.80;;;16.77;;
3036;SDS011;1528;52.550;13.408;2023-12-20T07:53:32;14.60;;;13.63;;
3036;SDS011;1528;52.550;13.408;2023-12-20T07:56:20;14.70;;;13.90;;
3036;SDS011;1528;52.550;13.408;2023-12-20T07:59:05;14.47;;;13.27;;
3036;SDS011;1528;52.550;13.408;2023-12-20T08:01:51;13.37;;;12.53;;
3036;SDS011;1528;52.550;13.408;2023-12-20T08:04:37;14.40;;;13.53;;
3036;SDS011;1528;52.550;13.408;2023-12-20T08:07:22;14.83;;;13.87;;
3036;SDS011;1528;52.550;13.408;2023-12-20T08:10:08;16.73;;;15.50;;
3036;SDS011;1528;52.550;13.408;2023-12-20T08:12:56;12.00;;;10.80;;
3036;SDS011;1528;52.550;13.408;2023-12-20T08:15:42;11.40;;;10.40;;
3036;SDS011;1528;52.550;13.408;2023-12-20T08:18:27;13.93;;;12.73;;
3036;SDS011;1528;52.550;13.408;2023-12-20T08:21:13;12.97;;;11.93;;
3036;SDS011;1528;52.550;13.408;2023-12-20T08:23:59;13.80;;;12.80;;
3036;SDS011;1528;52.550;13.408;2023-12-20T08:26:44;12.30;;;11.40;;
3036;SDS011;1528;52.550;13.408;2023-12-20T08:29:32;13.57;;;12.33;;
3036;SDS011;1528;52.550;13.408;2023-12-20T08:32:17;13.27;;;12.47;;
3036;SDS011;1528;52.550;13.408;2023-12-20T08:35:03;13.67;;;11.20;;
3036;SDS011;1528;52.550;13.408;2023-12-20T08:37:49;14.53;;;13.37;;
3036;SDS011;1528;52.550;13.408;2023-12-20T08:40:35;12.30;;;11.50;;
3036;SDS011;1528;52.550;13.408;2023-12-20T08:43:21;13.70;;;13.00;;
3036;SDS011;1528;52.550;13.408;2023-12-20T08:46:08;16.60;;;15.30;;
3036;SDS011;1528;52.550;13.408;2023-12-20T08:48:54;14.00;;;13.10;;
3036;SDS011;1528;52.550;13.408;2023-12-20T08:51:40;14.93;;;13.53;;
3036;SDS011;1528;52.550;13.408;2023-12-20T08:54:26;15.33;;;14.33;;
3036;SDS011;1528;52.550;13.408;2023-12-20T08:57:11;12.50;;;11.70;;
3036;SDS011;1528;52.550;13.408;2023-12-20T08:59:57;13.90;;;12.70;;
3036;SDS011;1528;52.550;13.408;2023-12-20T09:02:43;11.40;;;10.60;;
3036;SDS011;1528;52.550;13.408;2023-12-20T09:05:29;14.63;;;13.53;;
3036;SDS011;1528;52.550;13.408;2023-12-20T09:08:14;12.60;;;11.90;;
3036;SDS011;1528;52.550;13.408;2023-12-20T09:11:00;15.17;;;14.27;;
3036;SDS011;1528;52.550;13.408;2023-12-20T09:13:45;12.57;;;11.47;;
3036;SDS011;1528;52.550;13.408;2023-12-20T09:16:31;15.53;;;14.63;;
3036;SDS011;1528;52.550;13.408;2023-12-20T09:19:18;15.27;;;14.03;;
3036;SDS011;1528;52.550;13.408;2023-12-20T09:22:04;13.97;;;12.93;;
3036;SDS011;1528;52.550;13.408;2023-12-20T09:24:50;12.63;;;11.80;;
3036;SDS011;1528;52.550;13.408;2023-12-20T09:27:35;15.53;;;12.43;;
3036;SDS011;1528;52.550;13.408;2023-12-20T09:30:21;11.37;;;10.50;;
3036;SDS011;1528;52.550;13.408;2023-12-20T09:33:06;12.70;;;10.70;;
3036;SDS011;1528;52.550;13.408;2023-12-20T09:35:53;13.70;;;12.70;;
3036;SDS011;1528;52.550;13.408;2023-12-20T09:38:39;13.53;;;12.27;;
3036;SDS011;1528;52.550;13.408;2023-12-20T09:41:26;13.83;;;12.63;;
3036;SDS011;1528;52.550;13.408;2023-12-20T09:44:18;12.03;;;11.13;;
3036;SDS011;1528;52.550;13.408;2023-12-20T09:47:05;13.30;;;12.00;;
3036;SDS011;1528;52.550;13.408;2023-12-20T09:49:52;13.37;;;11.53;;
3036;SDS011;1528;52.550;13.408;2023-12-20T09:52:39;12.93;;;11.73;;
3036;SDS011;1528;52.550;13.408;2023-12-20T09:55:27;12.93;;;11.90;;
3036;SDS011;1528;52.550;13.408;2023-12-20T09:58:18;13.60;;;12.23;;
3036;SDS011;1528;52.550;13.408;2023-12-20T10:01:04;12.47;;;11.57;;
3036;SDS011;1528;52.550;13.408;2023-12-20T10:03:51;13.60;;;12.23;;
3036;SDS011;1528;52.550;13.408;2023-12-20T10:06:39;10.50;;;9.50;;
3036;SDS011;1528;52.550;13.408;2023-12-20T10:09:26;13.10;;;11.00;;
3036;SDS011;1528;52.550;13.408;2023-12-20T10:12:12;11.43;;;10.60;;
3036;SDS011;1528;52.550;13.408;2023-12-20T10:15:01;12.10;;;11.20;;
3036;SDS011;1528;52.550;13.408;2023-12-20T10:17:51;14.30;;;13.40;;
3036;SDS011;1528;52.550;13.408;2023-12-20T10:20:39;15.17;;;13.90;;
3036;SDS011;1528;52.550;13.408;2023-12-20T10:23:25;11.50;;;10.40;;
3036;SDS011;1528;52.550;13.408;2023-12-20T10:26:15;11.80;;;10.80;;
3036;SDS011;1528;52.550;13.408;2023-12-20T10:29:04;13.17;;;12.30;;
3036;SDS011;1528;52.550;13.408;2023-12-20T10:31:50;13.13;;;12.00;;
3036;SDS011;1528;52.550;13.408;2023-12-20T10:34:41;11.90;;;10.90;;
3036;SDS011;1528;52.550;13.408;2023-12-20T10:37:27;8.73;;;7.90;;
3036;SDS011;1528;52.550;13.408;2023-12-20T10:40:12;10.90;;;9.97;;
3036;SDS011;1528;52.550;13.408;2023-12-20T10:42:59;10.40;;;9.60;;
3036;SDS011;1528;52.550;13.408;2023-12-20T10:45:47;11.97;;;10.77;;
3036;SDS011;1528;52.550;13.408;2023-12-20T10:48:33;9.93;;;9.03;;
3036;SDS011;1528;52.550;13.408;2023-12-20T10:51:21;11.50;;;10.40;;
3036;SDS011;1528;52.550;13.408;2023-12-20T10:54:07;11.60;;;10.50;;
3036;SDS011;1528;52.550;13.408;2023-12-20T10:56:53;17.40;;;10.70;;
3036;SDS011;1528;52.550;13.408;2023-12-20T10:59:43;10.80;;;9.90;;
3036;SDS011;1528;52.550;13.408;2023-12-20T11:02:31;12.03;;;10.93;;
3036;SDS011;1528;52.550;13.408;2023-12-20T11:05:24;11.10;;;8.80;;
3036;SDS011;1528;52.550;13.408;2023-12-20T11:08:17;11.37;;;10.23;;
3036;SDS011;1528;52.550;13.408;2023-12-20T11:11:08;12.07;;;10.83;;
3036;SDS011;1528;52.550;13.408;2023-12-20T11:14:00;10.20;;;9.10;;
3036;SDS011;1528;52.550;13.408;2023-12-20T11:16:50;12.07;;;10.63;;
3036;SDS011;1528;52.550;13.408;2023-12-20T11:20:03;13.30;;;12.30;;
3036;SDS011;1528;52.550;13.408;2023-12-20T11:22:54;11.17;;;10.23;;
3036;SDS011;1528;52.550;13.408;2023-12-20T11:25:46;12.30;;;11.13;;
3036;SDS011;1528;52.550;13.408;2023-12-20T11:28:33;13.00;;;12.00;;
3036;SDS011;1528;52.550;13.408;2023-12-20T11:31:18;12.13;;;11.03;;
3036;SDS011;1528;52.550;13.408;2023-12-20T11:34:13;10.87;;;10.00;;
3036;SDS011;1528;52.550;13.408;2023-12-20T11:36:59;10.67;;;9.03;;
3036;SDS011;1528;52.550;13.408;2023-12-20T11:39:53;11.30;;;10.43;;
3036;SDS011;1528;52.550;13.408;2023-12-20T11:42:40;11.93;;;10.93;;
3036;SDS011;1528;52.550;13.408;2023-12-20T11:45:26;11.67;;;10.70;;
3036;SDS011;1528;52.550;13.408;2023-12-20T11:48:12;13.40;;;12.27;;
3036;SDS011;1528;52.550;13.408;2023-12-20T11:51:00;14.40;;;13.03;;
3036;SDS011;1528;52.550;13.408;2023-12-20T11:53:51;12.23;;;11.13;;
3036;SDS011;1528;52.550;13.408;2023-12-20T11:56:37;14.23;;;13.30;;
3036;SDS011;1528;52.550;13.408;2023-12-20T11:59:23;15.27;;;14.00;;
3036;SDS011;1528;52.550;13.408;2023-12-20T12:02:08;12.00;;;11.20;;
3036;SDS011;1528;52.550;13.408;2023-12-20T12:04:57;14.03;;;12.77;;
3036;SDS011;1528;52.550;13.408;2023-12-20T12:07:45;13.70;;;12.50;;
3036;SDS011;1528;52.550;13.408;2023-12-20T12:10:31;11.53;;;10.60;;
3036;SDS011;1528;52.550;13.408;2023-12-20T12:13:17;14.90;;;13.47;;
3036;SDS011;1528;52.550;13.408;2023-12-20T12:16:02;14.40;;;13.40;;
3036;SDS011;1528;52.550;13.408;2023-12-20T12:18:54;12.70;;;11.80;;
3036;SDS011;1528;52.550;13.408;2023-12-20T12:21:41;11.20;;;10.50;;
3036;SDS011;1528;52.550;13.408;2023-12-20T12:24:28;12.77;;;11.50;;
3036;SDS011;1528;52.550;13.408;2023-12-20T12:27:13;14.23;;;13.10;;
3036;SDS011;1528;52.550;13.408;2023-12-20T12:30:00;11.23;;;10.60;;
3036;SDS011;1528;52.550;13.408;2023-12-20T12:32:47;10.20;;;9.07;;
3036;SDS011;1528;52.550;13.408;2023-12-20T12:35:33;12.43;;;11.63;;
3036;SDS011;1528;52.550;13.408;2023-12-20T12:38:20;12.57;;;11.13;;
3036;SDS011;1528;52.550;13.408;2023-12-20T12:41:07;11.13;;;10.03;;
3036;SDS011;1528;52.550;13.408;2023-12-20T12:43:54;11.13;;;10.43;;
3036;SDS011;1528;52.550;13.408;2023-12-20T12:46:39;16.47;;;10.67;;
3036;SDS011;1528;52.550;13.408;2023-12-20T12:49:25;11.13;;;10.10;;
3036;SDS011;1528;52.550;13.408;2023-12-20T12:52:13;13.20;;;11.80;;
3036;SDS011;1528;52.550;13.408;2023-12-20T12:54:58;12.87;;;11.57;;
3036;SDS011;1528;52.550;13.408;2023-12-20T12:57:46;10.17;;;9.43;;
3036;SDS011;1528;52.550;13.408;2023-12-20T13:00:31;11.20;;;10.50;;
3036;SDS011;1528;52.550;13.408;2023-12-20T13:03:17;11.03;;;9.93;;
3036;SDS011;1528;52.550;13.408;2023-12-20T13:06:03;12.50;;;11.50;;
3036;SDS011;1528;52.550;13.408;2023-12-20T13:08:49;11.70;;;10.80;;
3036;SDS011;1528;52.550;13.408;2023-12-20T13:11:35;10.70;;;9.80;;
3036;SDS011;1528;52.550;13.408;2023-12-20T13:14:22;12.90;;;12.10;;
3036;SDS011;1528;52.550;13.408;2023-12-20T13:17:08;10.40;;;9.57;;
3036;SDS011;1528;52.550;13.408;2023-12-20T13:19:54;11.80;;;11.00;;
3036;SDS011;1528;52.550;13.408;2023-12-20T13:22:39;9.90;;;9.30;;
3036;SDS011;1528;52.550;13.408;2023-12-20T13:25:25;10.50;;;9.90;;
3036;SDS011;1528;52.550;13.408;2023-12-20T13:28:11;8.90;;;8.40;;
3036;SDS011;1528;52.550;13.408;2023-12-20T13:30:58;9.50;;;8.97;;
3036;SDS011;1528;52.550;13.408;2023-12-20T13:33:43;9.10;;;8.63;;
3036;SDS011;1528;52.550;13.408;2023-12-20T13:36:29;8.93;;;8.53;;
3036;SDS011;1528;52.550;13.408;2023-12-20T13:39:15;9.93;;;9.53;;
3036;SDS011;1528;52.550;13.408;2023-12-20T13:42:01;9.90;;;9.30;;
3036;SDS011;1528;52.550;13.408;2023-12-20T13:44:47;8.63;;;8.07;;
3036;SDS011;1528;52.550;13.408;2023-12-20T13:47:34;9.90;;;9.20;;
3036;SDS011;1528;52.550;13.408;2023-12-20T13:50:20;8.47;;;7.80;;
3036;SDS011;1528;52.550;13.408;2023-12-20T13:53:06;9.67;;;9.27;;
3036;SDS011;1528;52.550;13.408;2023-12-20T13:55:51;7.70;;;7.40;;
3036;SDS011;1528;52.550;13.408;2023-12-20T13:58:37;9.17;;;8.77;;
3036;SDS011;1528;52.550;13.408;2023-12-20T14:01:23;9.03;;;8.50;;
3036;SDS011;1528;52.550;13.408;2023-12-20T14:04:11;7.27;;;6.87;;
3036;SDS011;1528;52.550;13.408;2023-12-20T14:06:56;7.57;;;7.17;;
3036;SDS011;1528;52.550;13.408;2023-12-20T14:09:42;10.27;;;9.57;;
3036;SDS011;1528;52.550;13.408;2023-12-20T14:12:29;11.40;;;11.00;;
3036;SDS011;1528;52.550;13.408;2023-12-20T14:15:15;8.27;;;7.87;;
3036;SDS011;1528;52.550;13.408;2023-12-20T14:18:01;8.93;;;8.53;;
3036;SDS011;1528;52.550;13.408;2023-12-20T14:20:48;9.53;;;8.93;;
3036;SDS011;1528;52.550;13.408;2023-12-20T14:23:34;9.23;;;8.43;;
3036;SDS011;1528;52.550;13.408;2023-12-20T14:26:20;8.23;;;7.83;;
3036;SDS011;1528;52.550;13.408;2023-12-20T14:29:06;8.93;;;8.33;;
3036;SDS011;1528;52.550;13.408;2023-12-20T14:31:52;8.50;;;8.10;;
3036;SDS011;1528;52.550;13.408;2023-12-20T14:34:38;10.33;;;9.40;;
3036;SDS011;1528;52.550;13.408;2023-12-20T14:37:25;9.67;;;9.17;;
3036;SDS011;1528;52.550;13.408;2023-12-20T14:40:11;8.53;;;8.13;;
3036;SDS011;1528;52.550;13.408;2023-12-20T14:42:59;9.00;;;8.50;;
3036;SDS011;1528;52.550;13.408;2023-12-20T14:45:47;12.10;;;11.40;;
3036;SDS011;1528;52.550;13.408;2023-12-20T14:48:34;10.43;;;9.93;;
3036;SDS011;1528;52.550;13.408;2023-12-20T14:51:20;9.20;;;8.73;;
3036;SDS011;1528;52.550;13.408;2023-12-20T14:54:07;11.03;;;10.60;;
3036;SDS011;1528;52.550;13.408;2023-12-20T14:56:54;9.03;;;8.63;;
3036;SDS011;1528;52.550;13.408;2023-12-20T14:59:40;8.73;;;8.13;;
3036;SDS011;1528;52.550;13.408;2023-12-20T15:02:27;11.23;;;10.73;;
3036;SDS011;1528;52.550;13.408;2023-12-20T15:05:13;12.27;;;11.67;;
3036;SDS011;1528;52.550;13.408;2023-12-20T15:07:59;10.80;;;10.20;;
3036;SDS011;1528;52.550;13.408;2023-12-20T15:10:45;10.70;;;10.20;;
3036;SDS011;1528;52.550;13.408;2023-12-20T15:13:31;11.40;;;10.70;;
3036;SDS011;1528;52.550;13.408;2023-12-20T15:16:16;12.00;;;11.50;;
3036;SDS011;1528;52.550;13.408;2023-12-20T15:19:02;11.80;;;11.07;;
3036;SDS011;1528;52.550;13.408;2023-12-20T15:21:48;10.93;;;10.33;;
3036;SDS011;1528;52.550;13.408;2023-12-20T15:24:36;10.40;;;9.90;;
3036;SDS011;1528;52.550;13.408;2023-12-20T15:27:25;10.37;;;9.67;;
3036;SDS011;1528;52.550;13.408;2023-12-20T15:30:11;8.53;;;8.03;;
3036;SDS011;1528;52.550;13.408;2023-12-20T15:32:57;8.80;;;8.13;;
3036;SDS011;1528;52.550;13.408;2023-12-20T15:35:43;8.90;;;8.50;;
3036;SDS011;1528;52.550;13.408;2023-12-20T15:38:29;9.10;;;8.37;;
3036;SDS011;1528;52.550;13.408;2023-12-20T15:41:17;10.30;;;9.60;;
3036;SDS011;1528;52.550;13.408;2023-12-20T15:44:04;11.00;;;10.43;;
3036;SDS011;1528;52.550;13.408;2023-12-20T15:46:50;10.40;;;9.90;;
3036;SDS011;1528;52.550;13.408;2023-12-20T15:49:36;10.77;;;10.17;;
3036;SDS011;1528;52.550;13.408;2023-12-20T15:52:21;10.30;;;9.70;;
3036;SDS011;1528;52.550;13.408;2023-12-20T15:55:07;11.70;;;11.10;;
3036;SDS011;1528;52.550;13.408;2023-12-20T15:57:53;9.60;;;8.73;;
3036;SDS011;1528;52.550;13.408;2023-12-20T16:00:40;10.60;;;10.00;;
3036;SDS011;1528;52.550;13.408;2023-12-20T16:03:25;10.47;;;9.97;;
3036;SDS011;1528;52.550;13.408;2023-12-20T16:06:11;10.73;;;10.13;;
3036;SDS011;1528;52.550;13.408;2023-12-20T16:08:56;9.37;;;8.73;;
3036;SDS011;1528;52.550;13.408;2023-12-20T16:11:42;9.90;;;9.10;;
3036;SDS011;1528;52.550;13.408;2023-12-20T16:14:28;7.70;;;7.30;;
3036;SDS011;1528;52.550;13.408;2023-12-20T16:17:15;11.43;;;7.77;;
3036;SDS011;1528;52.550;13.408;2023-12-20T16:20:01;8.57;;;7.97;;
3036;SDS011;1528;52.550;13.408;2023-12-20T16:22:47;10.90;;;10.37;;
3036;SDS011;1528;52.550;13.408;2023-12-20T16:25:32;9.93;;;9.20;;
3036;SDS011;1528;52.550;13.408;2023-12-20T16:28:21;10.13;;;9.53;;
3036;SDS011;1528;52.550;13.408;2023-12-20T16:31:07;10.20;;;9.43;;
3036;SDS011;1528;52.550;13.408;2023-12-20T16:33:54;10.57;;;9.67;;
3036;SDS011;1528;52.550;13.408;2023-12-20T16:36:49;8.00;;;7.60;;
3036;SDS011;1528;52.550;13.408;2023-12-20T16:39:35;9.43;;;8.57;;